Time;durP1;ratioP1;P1;durP2;ratioP2;P2;SDS_P1;SDS_P2;PMS_P1;PMS_P2;Temp;Humidity;BMP_temperature;BMP_pressure;BME280_temperature;BME280_humidity;BME280_pressure;Samples;Min_cycle;Max_cycle;Signal;HPM_P1;HPM_P2
2021/01/16 00:00:47;;;;;;;3.20;2.17;;;;;;;;;;5089793;28;20020;-67
2021/01/16 00:03:15;;;;;;;2.03;1.80;;;;;;;;;;5088495;28;20472;-67
2021/01/16 00:05:41;;;;;;;2.00;1.88;;;;;;;;;;5087317;28;20118;-67
2021/01/16 00:08:17;;;;;;;3.00;2.75;;;;;;;;;;5088759;28;20448;-67
2021/01/16 00:10:45;;;;;;;2.42;2.03;;;;;;;;;;5088772;28;20024;-67
2021/01/16 00:13:12;;;;;;;1.95;1.65;;;;;;;;;;5088949;28;20728;-67
2021/01/16 00:15:38;;;;;;;2.10;1.83;;;;;;;;;;5088115;28;20024;-66
2021/01/16 00:18:05;;;;;;;8.20;2.60;;;;;;;;;;5088927;28;20056;-67
2021/01/16 00:20:32;;;;;;;1.60;1.50;;;;;;;;;;5087944;28;20134;-66
2021/01/16 00:22:58;;;;;;;1.90;1.65;;;;;;;;;;5089090;28;20109;-67
2021/01/16 00:25:25;;;;;;;4.05;1.92;;;;;;;;;;5087657;28;20105;-66
2021/01/16 00:27:51;;;;;;;2.20;1.77;;;;;;;;;;5088950;28;20390;-67
2021/01/16 00:30:18;;;;;;;2.45;2.05;;;;;;;;;;5088112;28;20035;-66
2021/01/16 00:32:44;;;;;;;3.38;2.05;;;;;;;;;;5089255;28;20024;-67
2021/01/16 00:35:17;;;;;;;2.42;1.98;;;;;;;;;;5086960;28;20028;-67
2021/01/16 00:37:45;;;;;;;1.95;1.73;;;;;;;;;;5072909;28;20140;-67
2021/01/16 00:40:12;;;;;;;2.35;2.03;;;;;;;;;;5068522;28;20060;-67
2021/01/16 00:42:41;;;;;;;1.83;1.73;;;;;;;;;;5067470;28;20040;-67
2021/01/16 00:45:08;;;;;;;4.50;1.98;;;;;;;;;;5068100;28;20055;-67
2021/01/16 00:47:35;;;;;;;2.83;1.65;;;;;;;;;;5067659;28;20351;-67
2021/01/16 00:50:01;;;;;;;1.55;1.40;;;;;;;;;;5068038;28;20035;-67
2021/01/16 00:52:27;;;;;;;2.25;2.05;;;;;;;;;;5067045;28;20020;-67
2021/01/16 00:54:53;;;;;;;1.70;1.60;;;;;;;;;;5067376;28;20229;-66
2021/01/16 00:57:19;;;;;;;4.45;2.42;;;;;;;;;;5067849;28;20706;-68
2021/01/16 00:59:46;;;;;;;1.50;1.40;;;;;;;;;;5068321;28;20576;-68
2021/01/16 01:02:12;;;;;;;1.98;1.75;;;;;;;;;;5067877;28;20578;-69
2021/01/16 01:04:38;;;;;;;1.98;1.58;;;;;;;;;;5066075;28;20574;-68
2021/01/16 01:07:08;;;;;;;2.10;1.98;;;;;;;;;;5067945;28;20025;-68
2021/01/16 01:09:35;;;;;;;2.00;1.75;;;;;;;;;;5066860;28;20036;-68
2021/01/16 01:12:01;;;;;;;1.98;1.50;;;;;;;;;;5067805;28;20024;-68
2021/01/16 01:14:27;;;;;;;3.25;2.13;;;;;;;;;;5066895;28;20028;-68
2021/01/16 01:16:53;;;;;;;2.35;1.90;;;;;;;;;;5067070;28;20055;-68
2021/01/16 01:19:19;;;;;;;1.60;1.50;;;;;;;;;;5067463;28;20020;-68
2021/01/16 01:21:45;;;;;;;1.80;1.67;;;;;;;;;;5067965;28;20040;-68
2021/01/16 01:24:11;;;;;;;3.33;1.45;;;;;;;;;;5067007;28;20094;-68
2021/01/16 01:26:38;;;;;;;2.40;2.20;;;;;;;;;;5067009;28;20028;-68
2021/01/16 01:29:04;;;;;;;3.15;2.60;;;;;;;;;;5067247;28;20032;-68
2021/01/16 01:31:30;;;;;;;2.15;1.95;;;;;;;;;;5066149;28;20027;-67
2021/01/16 01:33:56;;;;;;;2.63;2.22;;;;;;;;;;5066859;28;20518;-67
2021/01/16 01:36:22;;;;;;;2.17;1.98;;;;;;;;;;5069528;28;20466;-67
2021/01/16 01:38:48;;;;;;;3.22;2.90;;;;;;;;;;5087402;28;20108;-67
2021/01/16 01:41:15;;;;;;;2.15;1.60;;;;;;;;;;5088232;28;20043;-66
2021/01/16 01:43:41;;;;;;;2.85;2.13;;;;;;;;;;5085230;28;20040;-67
2021/01/16 01:46:07;;;;;;;2.35;1.75;;;;;;;;;;5087510;28;20028;-67
2021/01/16 01:48:33;;;;;;;2.92;2.42;;;;;;;;;;5086949;28;20444;-67
2021/01/16 01:51:00;;;;;;;1.40;1.30;;;;;;;;;;5088242;28;20036;-67
2021/01/16 01:53:27;;;;;;;2.33;2.00;;;;;;;;;;5086329;28;20114;-67
2021/01/16 01:55:55;;;;;;;2.28;2.08;;;;;;;;;;5087002;28;20028;-67
2021/01/16 01:58:24;;;;;;;2.53;2.33;;;;;;;;;;5086538;28;20020;-67
2021/01/16 02:00:52;;;;;;;3.05;2.10;;;;;;;;;;5088045;28;20036;-67
2021/01/16 02:03:19;;;;;;;2.60;2.40;;;;;;;;;;5086133;28;20028;-67
2021/01/16 02:05:46;;;;;;;2.15;1.70;;;;;;;;;;5085754;28;20121;-67
2021/01/16 02:08:12;;;;;;;2.65;2.05;;;;;;;;;;5087498;28;20062;-68
2021/01/16 02:10:38;;;;;;;2.97;1.58;;;;;;;;;;5086523;28;20036;-67
2021/01/16 02:13:04;;;;;;;3.85;3.45;;;;;;;;;;5086630;28;20478;-67
2021/01/16 02:15:33;;;;;;;2.65;1.92;;;;;;;;;;5086004;28;20031;-67
2021/01/16 02:18:08;;;;;;;2.92;2.60;;;;;;;;;;5086171;28;20170;-68
2021/01/16 02:20:36;;;;;;;2.30;1.63;;;;;;;;;;5086905;28;20040;-68
2021/01/16 02:23:14;;;;;;;2.72;1.70;;;;;;;;;;5086930;28;20475;-67
2021/01/16 02:25:40;;;;;;;1.60;1.50;;;;;;;;;;5086505;28;20043;-68
2021/01/16 02:28:07;;;;;;;2.30;2.10;;;;;;;;;;5087524;28;20031;-68
2021/01/16 02:30:35;;;;;;;2.08;1.77;;;;;;;;;;5090682;28;20119;-67
2021/01/16 02:33:02;;;;;;;2.13;1.92;;;;;;;;;;5091509;28;20012;-67
2021/01/16 02:35:28;;;;;;;2.13;1.63;;;;;;;;;;5088739;28;20074;-67
2021/01/16 02:38:04;;;;;;;2.53;1.70;;;;;;;;;;5073422;28;20119;-67
2021/01/16 02:40:36;;;;;;;1.70;1.23;;;;;;;;;;5070100;28;20115;-67
2021/01/16 02:43:05;;;;;;;1.77;1.67;;;;;;;;;;5070763;28;20085;-68
2021/01/16 02:45:33;;;;;;;2.70;2.22;;;;;;;;;;5069464;28;20055;-67
2021/01/16 02:48:18;;;;;;;2.00;1.90;;;;;;;;;;5070401;28;20025;-68
2021/01/16 02:50:48;;;;;;;2.13;1.92;;;;;;;;;;5070112;28;20491;-67
2021/01/16 02:53:14;;;;;;;2.55;1.70;;;;;;;;;;5070739;28;20626;-67
2021/01/16 02:55:41;;;;;;;1.27;1.13;;;;;;;;;;5069025;28;20036;-67
2021/01/16 02:58:07;;;;;;;2.10;1.73;;;;;;;;;;5069928;28;20078;-67
2021/01/16 03:00:33;;;;;;;1.27;1.17;;;;;;;;;;5069464;28;20060;-67
2021/01/16 03:02:59;;;;;;;3.10;2.13;;;;;;;;;;5070045;28;20051;-68
2021/01/16 03:05:25;;;;;;;2.97;1.75;;;;;;;;;;5067594;28;20032;-67
2021/01/16 03:07:51;;;;;;;1.00;1.00;;;;;;;;;;5070017;28;20723;-67
2021/01/16 03:10:19;;;;;;;2.35;1.58;;;;;;;;;;5070244;28;20495;-67
2021/01/16 03:12:45;;;;;;;1.67;1.58;;;;;;;;;;5069783;28;20021;-67
2021/01/16 03:15:16;;;;;;;1.40;1.30;;;;;;;;;;5069283;28;20028;-67
2021/01/16 03:18:08;;;;;;;1.35;1.25;;;;;;;;;;5069341;28;20064;-67
2021/01/16 03:20:34;;;;;;;2.35;1.10;;;;;;;;;;5064748;28;20326;-67
2021/01/16 03:23:01;;;;;;;0.70;0.70;;;;;;;;;;5070171;28;20032;-67
2021/01/16 03:25:29;;;;;;;2.20;2.00;;;;;;;;;;5068606;28;20075;-67
2021/01/16 03:27:56;;;;;;;1.77;1.65;;;;;;;;;;5069719;28;20506;-67
2021/01/16 03:30:22;;;;;;;1.50;1.02;;;;;;;;;;5069833;28;20107;-67
2021/01/16 03:32:49;;;;;;;1.73;0.77;;;;;;;;;;5069419;28;20036;-67
2021/01/16 03:35:16;;;;;;;2.60;1.20;;;;;;;;;;5067895;28;20115;-67
2021/01/16 03:37:43;;;;;;;1.88;1.40;;;;;;;;;;5084285;28;20039;-67
2021/01/16 03:40:10;;;;;;;1.70;1.08;;;;;;;;;;5090117;28;20382;-68
2021/01/16 03:42:36;;;;;;;1.58;1.48;;;;;;;;;;5088533;28;20028;-67
2021/01/16 03:45:04;;;;;;;1.20;0.98;;;;;;;;;;5089590;28;20077;-68
2021/01/16 03:47:30;;;;;;;1.48;1.15;;;;;;;;;;5088690;28;20051;-68
2021/01/16 03:49:56;;;;;;;1.50;1.13;;;;;;;;;;5089933;28;20028;-68
2021/01/16 03:52:29;;;;;;;1.25;1.15;;;;;;;;;;5089408;28;20062;-67
2021/01/16 03:54:55;;;;;;;1.75;0.95;;;;;;;;;;5089006;28;20456;-67
2021/01/16 03:57:21;;;;;;;1.23;1.05;;;;;;;;;;5088729;28;20034;-67
2021/01/16 03:59:47;;;;;;;2.42;1.33;;;;;;;;;;5089759;28;20027;-67
2021/01/16 04:02:14;;;;;;;1.30;1.20;;;;;;;;;;5089283;28;20032;-68
2021/01/16 04:04:40;;;;;;;1.35;1.25;;;;;;;;;;5087163;28;20331;-68
2021/01/16 04:07:07;;;;;;;1.38;1.17;;;;;;;;;;5089400;28;20590;-68
2021/01/16 04:09:33;;;;;;;3.20;1.58;;;;;;;;;;5088867;28;20028;-68
2021/01/16 04:11:59;;;;;;;1.17;0.98;;;;;;;;;;5089782;28;20036;-68
2021/01/16 04:14:25;;;;;;;0.98;0.60;;;;;;;;;;5087920;28;20105;-68
2021/01/16 04:16:52;;;;;;;0.60;0.60;;;;;;;;;;5089146;28;20103;-68
2021/01/16 04:19:18;;;;;;;1.65;0.90;;;;;;;;;;5089028;28;20028;-67
2021/01/16 04:21:45;;;;;;;1.02;0.65;;;;;;;;;;5088908;28;20024;-67
2021/01/16 04:24:11;;;;;;;0.70;0.60;;;;;;;;;;5088256;28;20098;-67
2021/01/16 04:26:37;;;;;;;0.85;0.70;;;;;;;;;;5087564;28;20035;-67
2021/01/16 04:29:03;;;;;;;0.88;0.80;;;;;;;;;;5089190;28;20452;-67
2021/01/16 04:31:29;;;;;;;0.60;0.60;;;;;;;;;;5088222;28;20028;-67
2021/01/16 04:33:55;;;;;;;1.08;0.98;;;;;;;;;;5088346;28;20024;-67
2021/01/16 04:36:21;;;;;;;0.73;0.43;;;;;;;;;;5083039;28;20124;-67
2021/01/16 04:38:47;;;;;;;0.82;0.65;;;;;;;;;;5068877;28;20044;-68
2021/01/16 04:41:14;;;;;;;0.98;0.90;;;;;;;;;;5069062;28;20037;-68
2021/01/16 04:43:40;;;;;;;0.75;0.60;;;;;;;;;;5066786;28;20043;-67
2021/01/16 04:46:07;;;;;;;0.55;0.55;;;;;;;;;;5068071;28;20537;-67
2021/01/16 04:48:35;;;;;;;0.93;0.60;;;;;;;;;;5068149;28;20051;-67
2021/01/16 04:51:02;;;;;;;0.50;0.50;;;;;;;;;;5066846;28;20056;-67
2021/01/16 04:53:36;;;;;;;0.60;0.52;;;;;;;;;;5067101;28;20028;-67
2021/01/16 04:56:02;;;;;;;0.80;0.80;;;;;;;;;;5068057;28;20071;-68
2021/01/16 04:58:29;;;;;;;0.90;0.57;;;;;;;;;;5067449;28;20024;-67
2021/01/16 05:00:56;;;;;;;0.60;0.60;;;;;;;;;;5068729;28;20027;-68
2021/01/16 05:03:23;;;;;;;0.35;0.35;;;;;;;;;;5066803;28;20028;-67
2021/01/16 05:05:50;;;;;;;1.73;0.98;;;;;;;;;;5066212;28;20040;-67
2021/01/16 05:08:18;;;;;;;0.45;0.43;;;;;;;;;;5067377;28;20032;-67
2021/01/16 05:10:44;;;;;;;0.93;0.60;;;;;;;;;;5067590;28;20060;-67
2021/01/16 05:13:11;;;;;;;0.60;0.57;;;;;;;;;;5067721;28;20469;-68
2021/01/16 05:15:39;;;;;;;0.50;0.50;;;;;;;;;;5066915;28;20040;-67
2021/01/16 05:18:07;;;;;;;0.52;0.40;;;;;;;;;;5067792;28;20473;-67
2021/01/16 05:20:34;;;;;;;1.02;0.80;;;;;;;;;;5067113;28;20040;-67
2021/01/16 05:23:13;;;;;;;0.85;0.70;;;;;;;;;;5067722;28;20020;-68
2021/01/16 05:25:39;;;;;;;0.93;0.60;;;;;;;;;;5066545;28;20052;-67
2021/01/16 05:28:06;;;;;;;1.20;0.68;;;;;;;;;;5067246;28;20024;-68
2021/01/16 05:30:44;;;;;;;1.30;1.17;;;;;;;;;;5067572;28;20024;-67
2021/01/16 05:33:10;;;;;;;0.73;0.60;;;;;;;;;;5067066;28;20103;-68
2021/01/16 05:35:36;;;;;;;1.27;0.65;;;;;;;;;;5065858;28;20449;-67
2021/01/16 05:38:02;;;;;;;0.47;0.40;;;;;;;;;;5085228;28;20024;-68
2021/01/16 05:40:29;;;;;;;1.48;0.68;;;;;;;;;;5087826;28;20085;-67
2021/01/16 05:42:55;;;;;;;0.43;0.30;;;;;;;;;;5087378;28;20024;-68
2021/01/16 05:45:22;;;;;;;0.43;0.43;;;;;;;;;;5087198;28;20059;-67
2021/01/16 05:47:49;;;;;;;0.47;0.43;;;;;;;;;;5087563;28;20020;-68
2021/01/16 05:50:15;;;;;;;0.80;0.80;;;;;;;;;;5087332;28;20055;-67
2021/01/16 05:52:41;;;;;;;1.00;0.75;;;;;;;;;;5086804;28;20028;-68
2021/01/16 05:55:08;;;;;;;0.85;0.65;;;;;;;;;;5086867;28;20043;-68
2021/01/16 05:57:35;;;;;;;1.02;1.02;;;;;;;;;;5086753;28;20088;-68
2021/01/16 06:00:02;;;;;;;1.20;1.10;;;;;;;;;;5087462;28;20035;-68
2021/01/16 06:02:30;;;;;;;0.65;0.55;;;;;;;;;;5088170;28;20060;-67
2021/01/16 06:04:56;;;;;;;0.50;0.40;;;;;;;;;;5089568;28;20042;-68
2021/01/16 06:07:23;;;;;;;0.70;0.63;;;;;;;;;;5090664;28;20552;-68
2021/01/16 06:09:55;;;;;;;0.70;0.63;;;;;;;;;;5090821;28;20031;-68
2021/01/16 06:12:22;;;;;;;0.95;0.38;;;;;;;;;;5090989;28;20514;-68
2021/01/16 06:14:49;;;;;;;0.77;0.40;;;;;;;;;;5090274;28;20039;-68
2021/01/16 06:17:16;;;;;;;0.88;0.65;;;;;;;;;;5091047;28;20056;-66
2021/01/16 06:19:43;;;;;;;0.60;0.60;;;;;;;;;;5091308;28;20517;-67
2021/01/16 06:22:10;;;;;;;0.73;0.60;;;;;;;;;;5091447;28;20035;-68
2021/01/16 06:24:37;;;;;;;0.98;0.80;;;;;;;;;;5089885;28;20394;-67
2021/01/16 06:27:03;;;;;;;1.10;0.70;;;;;;;;;;5091411;28;20016;-67
2021/01/16 06:29:29;;;;;;;0.57;0.45;;;;;;;;;;5091024;28;20483;-67
2021/01/16 06:32:08;;;;;;;0.68;0.60;;;;;;;;;;5091478;28;20031;-68
2021/01/16 06:34:36;;;;;;;0.80;0.80;;;;;;;;;;5088686;28;20143;-67
2021/01/16 06:37:09;;;;;;;0.30;0.30;;;;;;;;;;5081022;28;20193;-68
2021/01/16 06:39:39;;;;;;;1.17;0.63;;;;;;;;;;5070283;28;20029;-67
2021/01/16 06:42:06;;;;;;;1.27;0.80;;;;;;;;;;5070459;28;20028;-68
2021/01/16 06:44:32;;;;;;;1.23;0.85;;;;;;;;;;5069011;28;20024;-68
2021/01/16 06:46:59;;;;;;;1.67;0.70;;;;;;;;;;5070812;28;20035;-67
2021/01/16 06:49:25;;;;;;;1.48;1.10;;;;;;;;;;5070257;28;20042;-67
2021/01/16 06:51:52;;;;;;;0.90;0.50;;;;;;;;;;5071360;28;20481;-67
2021/01/16 06:54:22;;;;;;;0.82;0.73;;;;;;;;;;5069638;28;20533;-67
2021/01/16 06:56:59;;;;;;;0.35;0.35;;;;;;;;;;5070664;28;20105;-68
2021/01/16 06:59:27;;;;;;;0.60;0.60;;;;;;;;;;5069977;28;20062;-67
2021/01/16 07:01:53;;;;;;;0.88;0.60;;;;;;;;;;5070401;28;20503;-68
2021/01/16 07:04:20;;;;;;;0.52;0.30;;;;;;;;;;5068507;28;20111;-67
2021/01/16 07:06:47;;;;;;;0.70;0.35;;;;;;;;;;5069805;28;20491;-68
2021/01/16 07:09:23;;;;;;;0.93;0.60;;;;;;;;;;5070143;28;20115;-68
2021/01/16 07:11:50;;;;;;;0.65;0.50;;;;;;;;;;5070416;28;20525;-68
2021/01/16 07:14:17;;;;;;;0.82;0.52;;;;;;;;;;5068292;28;20031;-67
2021/01/16 07:16:43;;;;;;;0.70;0.60;;;;;;;;;;5069066;28;20024;-68
2021/01/16 07:19:10;;;;;;;1.95;0.82;;;;;;;;;;5070025;28;20093;-68
2021/01/16 07:21:40;;;;;;;0.70;0.60;;;;;;;;;;5069453;28;20841;-67
2021/01/16 07:24:10;;;;;;;1.15;0.60;;;;;;;;;;5069031;28;20112;-68
2021/01/16 07:26:36;;;;;;;0.88;0.80;;;;;;;;;;5068833;28;20094;-67
2021/01/16 07:29:09;;;;;;;0.70;0.60;;;;;;;;;;5071492;28;20055;-68
2021/01/16 07:31:39;;;;;;;0.90;0.80;;;;;;;;;;5071134;28;20052;-67
2021/01/16 07:34:07;;;;;;;0.75;0.75;;;;;;;;;;5071540;28;20037;-68
2021/01/16 07:36:35;;;;;;;1.17;0.70;;;;;;;;;;5076097;28;20105;-68
2021/01/16 07:39:05;;;;;;;0.93;0.80;;;;;;;;;;5091736;28;20502;-67
2021/01/16 07:41:32;;;;;;;1.17;1.08;;;;;;;;;;5091173;28;20505;-68
2021/01/16 07:44:04;;;;;;;1.00;1.00;;;;;;;;;;5091549;28;20024;-68
2021/01/16 07:46:31;;;;;;;1.63;1.33;;;;;;;;;;5090725;28;20039;-68
2021/01/16 07:48:58;;;;;;;0.50;0.50;;;;;;;;;;5091966;28;20024;-68
2021/01/16 07:51:37;;;;;;;1.10;1.00;;;;;;;;;;5091191;28;20042;-67
2021/01/16 07:54:04;;;;;;;1.45;0.82;;;;;;;;;;5091746;28;20033;-68
2021/01/16 07:56:37;;;;;;;1.85;1.38;;;;;;;;;;5090711;28;20024;-67
2021/01/16 07:59:17;;;;;;;1.30;1.20;;;;;;;;;;5091404;28;20020;-67
2021/01/16 08:01:46;;;;;;;1.65;1.17;;;;;;;;;;5090904;28;20028;-68
2021/01/16 08:04:30;;;;;;;1.48;0.93;;;;;;;;;;5090902;28;20020;-68
2021/01/16 08:07:03;;;;;;;2.30;1.73;;;;;;;;;;5091297;28;20196;-67
2021/01/16 08:09:35;;;;;;;1.67;1.15;;;;;;;;;;5090736;28;20036;-67
2021/01/16 08:12:01;;;;;;;1.08;0.95;;;;;;;;;;5091354;28;20593;-68
2021/01/16 08:14:32;;;;;;;1.25;1.08;;;;;;;;;;5090211;28;20027;-67
2021/01/16 08:16:58;;;;;;;1.15;0.75;;;;;;;;;;5090920;28;20053;-67
2021/01/16 08:19:28;;;;;;;0.73;0.60;;;;;;;;;;5090403;28;20035;-67
2021/01/16 08:21:55;;;;;;;1.88;1.38;;;;;;;;;;5091175;28;20433;-67
2021/01/16 08:24:22;;;;;;;1.63;0.90;;;;;;;;;;5089773;28;20020;-67
2021/01/16 08:27:01;;;;;;;1.02;0.63;;;;;;;;;;5091301;28;20039;-67
2021/01/16 08:29:29;;;;;;;1.02;0.90;;;;;;;;;;5090183;28;20024;-67
2021/01/16 08:32:07;;;;;;;1.15;1.05;;;;;;;;;;5090845;28;20582;-67
2021/01/16 08:34:49;;;;;;;1.02;0.95;;;;;;;;;;5089162;28;20024;-67
2021/01/16 08:37:30;;;;;;;1.25;1.15;;;;;;;;;;5079332;28;20028;-67
2021/01/16 08:39:57;;;;;;;1.00;0.98;;;;;;;;;;5070528;28;20116;-67
2021/01/16 08:42:28;;;;;;;1.95;1.67;;;;;;;;;;5069750;28;20491;-67
2021/01/16 08:44:56;;;;;;;2.13;1.30;;;;;;;;;;5069978;28;20093;-68
2021/01/16 08:47:22;;;;;;;1.52;1.05;;;;;;;;;;5069464;28;20028;-67
2021/01/16 08:49:48;;;;;;;1.67;1.58;;;;;;;;;;5070189;28;20058;-67
2021/01/16 08:52:30;;;;;;;1.60;1.50;;;;;;;;;;5070273;28;20028;-66
2021/01/16 08:55:03;;;;;;;2.38;2.10;;;;;;;;;;5069914;28;20033;-67
2021/01/16 08:57:30;;;;;;;2.17;1.63;;;;;;;;;;5069339;28;20029;-67
2021/01/16 08:59:56;;;;;;;2.08;1.88;;;;;;;;;;5070135;28;20028;-67
2021/01/16 09:02:23;;;;;;;1.95;1.73;;;;;;;;;;5067734;28;20028;-67
2021/01/16 09:04:49;;;;;;;1.88;1.75;;;;;;;;;;5068776;28;20441;-67
2021/01/16 09:07:24;;;;;;;2.45;2.08;;;;;;;;;;5069213;28;20029;-67
2021/01/16 09:09:58;;;;;;;2.10;1.80;;;;;;;;;;5069788;28;20103;-67
2021/01/16 09:12:37;;;;;;;2.22;2.03;;;;;;;;;;5069107;28;20154;-67
2021/01/16 09:15:15;;;;;;;1.50;1.40;;;;;;;;;;5069469;28;20052;-68
2021/01/16 09:17:41;;;;;;;4.70;2.30;;;;;;;;;;5068525;28;20048;-67
2021/01/16 09:20:07;;;;;;;2.25;1.83;;;;;;;;;;5069720;28;20033;-67
2021/01/16 09:22:33;;;;;;;3.72;2.55;;;;;;;;;;5068481;28;20107;-67
2021/01/16 09:25:18;;;;;;;2.83;1.77;;;;;;;;;;5069084;28;20040;-67
2021/01/16 09:27:47;;;;;;;2.63;2.22;;;;;;;;;;5068960;28;20078;-68
2021/01/16 09:30:30;;;;;;;3.97;2.10;;;;;;;;;;5069560;28;20502;-67
2021/01/16 09:32:56;;;;;;;2.53;2.28;;;;;;;;;;5069139;28;20042;-67
2021/01/16 09:35:36;;;;;;;2.80;2.38;;;;;;;;;;5068511;28;20028;-67
2021/01/16 09:38:03;;;;;;;2.75;2.30;;;;;;;;;;5086901;28;20042;-67
2021/01/16 09:40:36;;;;;;;2.63;2.42;;;;;;;;;;5089049;28;20051;-67
2021/01/16 09:43:13;;;;;;;2.60;2.35;;;;;;;;;;5089895;28;20545;-67
2021/01/16 09:45:50;;;;;;;1.88;1.77;;;;;;;;;;5089064;28;20630;-67
2021/01/16 09:48:31;;;;;;;3.22;2.30;;;;;;;;;;5089378;28;20466;-67
2021/01/16 09:50:58;;;;;;;2.88;2.65;;;;;;;;;;5089760;28;20035;-67
2021/01/16 09:53:25;;;;;;;2.20;1.95;;;;;;;;;;5088889;28;20036;-67
2021/01/16 09:55:55;;;;;;;2.00;1.88;;;;;;;;;;5089387;28;20043;-67
2021/01/16 09:58:27;;;;;;;2.25;1.90;;;;;;;;;;5089133;28;20406;-67
2021/01/16 10:00:54;;;;;;;2.75;2.42;;;;;;;;;;5089706;28;20024;-67
2021/01/16 10:03:32;;;;;;;2.60;2.40;;;;;;;;;;5088419;28;20084;-66
2021/01/16 10:06:04;;;;;;;2.40;2.10;;;;;;;;;;5088546;28;20406;-67
2021/01/16 10:08:33;;;;;;;2.65;2.38;;;;;;;;;;5088513;28;20020;-67
2021/01/16 10:11:00;;;;;;;3.60;2.40;;;;;;;;;;5089060;28;20039;-67
2021/01/16 10:13:36;;;;;;;2.97;2.00;;;;;;;;;;5088589;28;20074;-67
2021/01/16 10:16:05;;;;;;;3.70;2.75;;;;;;;;;;5089447;28;20071;-67
2021/01/16 10:18:33;;;;;;;2.35;2.05;;;;;;;;;;5087906;28;20566;-67
2021/01/16 10:21:12;;;;;;;3.35;2.42;;;;;;;;;;5089540;28;20028;-67
2021/01/16 10:23:42;;;;;;;5.95;4.78;;;;;;;;;;5088507;28;20047;-67
2021/01/16 10:26:10;;;;;;;3.55;2.88;;;;;;;;;;5089111;28;20039;-67
2021/01/16 10:28:37;;;;;;;3.35;2.95;;;;;;;;;;5088475;28;20047;-67
2021/01/16 10:31:10;;;;;;;4.35;3.10;;;;;;;;;;5089309;28;20027;-67
2021/01/16 10:33:43;;;;;;;3.20;2.90;;;;;;;;;;5088334;28;20147;-67
2021/01/16 10:36:13;;;;;;;3.65;3.35;;;;;;;;;;5086382;28;20032;-68
2021/01/16 10:38:48;;;;;;;3.05;2.72;;;;;;;;;;5068645;28;20957;-67
2021/01/16 10:41:16;;;;;;;5.03;4.10;;;;;;;;;;5068755;28;20043;-67
2021/01/16 10:43:42;;;;;;;2.60;2.40;;;;;;;;;;5068578;28;20062;-67
2021/01/16 10:46:29;;;;;;;5.05;3.50;;;;;;;;;;5068716;28;20086;-68
2021/01/16 10:49:10;;;;;;;10.25;3.85;;;;;;;;;;5069069;28;20470;-68
2021/01/16 10:51:37;;;;;;;2.72;2.50;;;;;;;;;;5072278;28;20505;-67
2021/01/16 10:54:03;;;;;;;3.63;3.17;;;;;;;;;;5072422;28;20021;-68
2021/01/16 10:56:33;;;;;;;2.40;2.20;;;;;;;;;;5071678;28;20032;-67
2021/01/16 10:59:16;;;;;;;3.45;3.03;;;;;;;;;;5072516;28;20035;-68
2021/01/16 11:01:49;;;;;;;2.90;2.13;;;;;;;;;;5072246;28;20033;-67
2021/01/16 11:04:18;;;;;;;3.60;3.10;;;;;;;;;;5071577;28;20028;-66
2021/01/16 11:06:52;;;;;;;4.60;4.25;;;;;;;;;;5071795;28;20564;-67
2021/01/16 11:09:36;;;;;;;4.32;3.25;;;;;;;;;;5071798;28;20500;-68
2021/01/16 11:12:02;;;;;;;2.65;2.42;;;;;;;;;;5072648;28;20040;-68
2021/01/16 11:14:35;;;;;;;2.85;2.65;;;;;;;;;;5071009;28;20101;-68
2021/01/16 11:17:02;;;;;;;2.10;2.00;;;;;;;;;;5071949;28;20049;-68
2021/01/16 11:19:31;;;;;;;2.72;2.53;;;;;;;;;;5070908;28;20517;-67
2021/01/16 11:22:04;;;;;;;4.40;3.45;;;;;;;;;;5071996;28;20058;-68
2021/01/16 11:24:50;;;;;;;2.75;2.10;;;;;;;;;;5070750;28;20479;-67
2021/01/16 11:27:17;;;;;;;2.65;2.40;;;;;;;;;;5071114;28;20029;-66
2021/01/16 11:29:44;;;;;;;3.10;2.22;;;;;;;;;;5071647;28;20056;-67
2021/01/16 11:32:20;;;;;;;3.72;2.80;;;;;;;;;;5072077;28;20062;-68
2021/01/16 11:35:05;;;;;;;2.40;2.13;;;;;;;;;;5070983;28;20021;-68
2021/01/16 11:37:43;;;;;;;2.15;2.00;;;;;;;;;;5084053;28;20406;-67
2021/01/16 11:40:30;;;;;;;2.20;2.00;;;;;;;;;;5091945;28;20032;-68
2021/01/16 11:42:57;;;;;;;2.33;2.13;;;;;;;;;;5091972;28;20031;-68
2021/01/16 11:45:24;;;;;;;2.47;2.10;;;;;;;;;;5091066;28;20356;-67
2021/01/16 11:47:54;;;;;;;3.47;2.65;;;;;;;;;;5091833;28;20027;-67
2021/01/16 11:50:21;;;;;;;3.17;2.88;;;;;;;;;;5090908;28;20499;-67
2021/01/16 11:52:47;;;;;;;1.80;1.70;;;;;;;;;;5091453;28;20020;-68
2021/01/16 11:55:14;;;;;;;2.50;2.10;;;;;;;;;;5091512;28;20035;-68
2021/01/16 11:57:41;;;;;;;2.70;1.85;;;;;;;;;;5090749;28;20118;-67
2021/01/16 12:00:07;;;;;;;2.38;2.17;;;;;;;;;;5091155;28;20031;-67
2021/01/16 12:02:34;;;;;;;2.95;1.88;;;;;;;;;;5090923;28;20613;-67
2021/01/16 12:05:00;;;;;;;1.58;1.45;;;;;;;;;;5090497;28;20182;-68
2021/01/16 12:07:27;;;;;;;3.38;2.03;;;;;;;;;;5090441;28;20024;-67
2021/01/16 12:09:56;;;;;;;2.00;1.70;;;;;;;;;;5091297;28;20035;-68
2021/01/16 12:12:29;;;;;;;2.72;1.80;;;;;;;;;;5089632;28;20364;-67
2021/01/16 12:14:55;;;;;;;2.08;1.88;;;;;;;;;;5089965;28;20028;-67
2021/01/16 12:17:21;;;;;;;2.35;2.10;;;;;;;;;;5088812;28;20044;-67
2021/01/16 12:19:50;;;;;;;1.60;1.40;;;;;;;;;;5091223;28;20185;-68
2021/01/16 12:22:20;;;;;;;1.67;1.58;;;;;;;;;;5091018;28;20042;-67
2021/01/16 12:24:47;;;;;;;2.60;1.88;;;;;;;;;;5090720;28;20375;-67
2021/01/16 12:27:13;;;;;;;1.70;1.45;;;;;;;;;;5090680;28;20032;-68
2021/01/16 12:29:40;;;;;;;3.25;1.63;;;;;;;;;;5090498;28;20120;-68
2021/01/16 12:32:06;;;;;;;2.05;1.85;;;;;;;;;;5090888;28;20096;-68
2021/01/16 12:34:33;;;;;;;1.33;1.30;;;;;;;;;;5089537;28;20024;-67
2021/01/16 12:37:00;;;;;;;2.20;2.08;;;;;;;;;;5081410;28;20533;-67
2021/01/16 12:39:26;;;;;;;2.10;1.90;;;;;;;;;;5069729;28;20491;-67
2021/01/16 12:41:57;;;;;;;1.80;1.70;;;;;;;;;;5070695;28;20028;-68
2021/01/16 12:44:23;;;;;;;2.03;1.88;;;;;;;;;;5069542;28;20400;-67
2021/01/16 12:46:51;;;;;;;2.08;1.73;;;;;;;;;;5070288;28;20025;-68
2021/01/16 12:49:19;;;;;;;2.20;1.55;;;;;;;;;;5069624;28;20032;-66
2021/01/16 12:51:46;;;;;;;2.33;1.90;;;;;;;;;;5070156;28;20358;-67
2021/01/16 12:54:12;;;;;;;2.05;1.92;;;;;;;;;;5069816;28;20025;-67
2021/01/16 12:56:39;;;;;;;2.85;2.05;;;;;;;;;;5069409;28;20097;-67
2021/01/16 12:59:07;;;;;;;3.25;2.00;;;;;;;;;;5070166;28;20025;-67
2021/01/16 13:01:34;;;;;;;2.55;2.20;;;;;;;;;;5069495;28;20029;-68
2021/01/16 13:04:00;;;;;;;2.50;2.13;;;;;;;;;;5069644;28;20025;-67
2021/01/16 13:06:26;;;;;;;3.60;2.42;;;;;;;;;;5051041;28;20406;-67
2021/01/16 13:08:55;;;;;;;2.92;2.40;;;;;;;;;;5069781;28;20459;-68
2021/01/16 13:11:24;;;;;;;3.35;2.70;;;;;;;;;;5069381;28;20032;-67
2021/01/16 13:13:58;;;;;;;2.55;2.30;;;;;;;;;;5069226;28;20033;-67
2021/01/16 13:16:24;;;;;;;;;;;;;;;;;;5069300;28;20108;-67
2021/01/16 13:18:51;;;;;;;5.25;2.92;;;;;;;;;;5047361;28;20011;-68
2021/01/16 13:21:26;;;;;;;4.68;2.38;;;;;;;;;;5049391;28;20482;-67
2021/01/16 13:23:53;;;;;;;3.33;2.38;;;;;;;;;;5049610;28;20025;-68
2021/01/16 13:26:19;;;;;;;2.20;1.95;;;;;;;;;;5049214;28;20043;-67
2021/01/16 13:28:46;;;;;;;3.35;2.92;;;;;;;;;;5049397;28;20025;-68
2021/01/16 13:31:16;;;;;;;3.28;2.38;;;;;;;;;;5049347;28;20029;-68
2021/01/16 13:33:51;;;;;;;2.00;1.90;;;;;;;;;;5048801;28;20084;-68
2021/01/16 13:36:21;;;;;;;3.45;2.28;;;;;;;;;;5051404;28;20499;-67
2021/01/16 13:38:49;;;;;;;2.17;1.75;;;;;;;;;;5087027;28;20030;-67
2021/01/16 13:41:16;;;;;;;2.47;1.90;;;;;;;;;;5089472;28;20198;-67
2021/01/16 13:43:43;;;;;;;2.25;1.95;;;;;;;;;;5089629;28;20751;-68
2021/01/16 13:46:09;;;;;;;1.52;1.42;;;;;;;;;;5089304;28;20036;-68
2021/01/16 13:48:37;;;;;;;3.28;1.60;;;;;;;;;;5089133;28;20036;-67
2021/01/16 13:51:18;;;;;;;2.35;1.90;;;;;;;;;;5089773;28;20198;-68
2021/01/16 13:53:51;;;;;;;3.03;2.00;;;;;;;;;;5089343;28;20032;-67
2021/01/16 13:56:19;;;;;;;2.22;2.03;;;;;;;;;;5088916;28;20444;-67
2021/01/16 13:58:45;;;;;;;2.45;1.83;;;;;;;;;;5071421;28;20512;-67
2021/01/16 14:01:11;;;;;;;1.73;1.63;;;;;;;;;;5089848;28;20498;-68
2021/01/16 14:03:39;;;;;;;2.90;2.05;;;;;;;;;;5088847;28;20028;-67
2021/01/16 14:06:05;;;;;;;2.47;1.60;;;;;;;;;;5088505;28;20590;-68
2021/01/16 14:08:31;;;;;;;1.58;1.48;;;;;;;;;;5088778;28;20028;-68
2021/01/16 14:11:05;;;;;;;2.20;1.30;;;;;;;;;;5089349;28;20399;-68
2021/01/16 14:13:36;;;;;;;2.42;2.22;;;;;;;;;;5088278;28;20372;-67
2021/01/16 14:16:07;;;;;;;2.25;1.45;;;;;;;;;;5089164;28;20035;-68
2021/01/16 14:18:34;;;;;;;1.50;1.40;;;;;;;;;;5088083;28;20406;-67
2021/01/16 14:21:00;;;;;;;1.85;1.38;;;;;;;;;;5089296;28;20039;-67
2021/01/16 14:23:34;;;;;;;4.60;2.38;;;;;;;;;;5089830;28;20398;-67
2021/01/16 14:26:00;;;;;;;;;;;;;;;;;;5093492;28;20047;-67
2021/01/16 14:28:29;;;;;;;1.55;1.45;;;;;;;;;;5092518;28;19998;-67
2021/01/16 14:30:55;;;;;;;3.17;2.80;;;;;;;;;;5093481;28;20281;-67
2021/01/16 14:33:21;;;;;;;3.05;1.63;;;;;;;;;;5092258;28;20257;-67
2021/01/16 14:35:47;;;;;;;1.75;1.55;;;;;;;;;;5092477;28;20081;-68
2021/01/16 14:38:14;;;;;;;2.15;1.42;;;;;;;;;;5073654;28;20517;-68
2021/01/16 14:40:42;;;;;;;1.40;1.30;;;;;;;;;;5072422;28;20029;-68
2021/01/16 14:43:09;;;;;;;2.50;1.70;;;;;;;;;;5072790;28;20024;-67
2021/01/16 14:45:37;;;;;;;1.90;1.35;;;;;;;;;;5071664;28;20412;-68
2021/01/16 14:48:22;;;;;;;2.35;1.75;;;;;;;;;;5072326;28;20040;-67
2021/01/16 14:50:48;;;;;;;3.25;2.00;;;;;;;;;;5073118;28;20028;-68
2021/01/16 14:53:24;;;;;;;2.05;1.90;;;;;;;;;;5072447;28;20471;-67